< < Back
Terminal Aerodrome Forecast


Current Version              Previous Versions:   1  2  3  4  5  6  7  8  9  

Terminal Aerodrome Forecast

825
FTUS42 KJAX 181500 AAB
TAFJAX
TAF AMD
KJAX 181509Z 1815/1912 08013G21KT 5SM -SHRA BR BKN020 OVC035
     FM181900 11016G25KT 2SM SHRA BR OVC007
     FM190400 16013KT 3SM -SHRA BR BKN010=



Latest METAR

133
SAUS80 KWBC 181500 CCA
MTRJAX
METAR KJAX 181456Z 06010KT 9SM -RA BKN025 OVC080 19/18 A3009 RMK AO2
RAB26 SLP190 P0000 60000 T01940183 58012


USA.gov is the U.S. government's official web portal to all federal, state and local government web resources and services.